createdAt,value
2023-03-13T00:01:57.086Z,14.60
2023-03-13T00:04:24.137Z,14.60
2023-03-13T00:06:51.031Z,14.60
2023-03-13T00:09:18.431Z,14.70
2023-03-13T00:11:45.927Z,14.60
2023-03-13T00:14:13.293Z,14.60
2023-03-13T00:16:40.225Z,14.60
2023-03-13T00:19:08.263Z,14.70
2023-03-13T00:21:37.598Z,14.60
2023-03-13T00:24:05.178Z,14.60
2023-03-13T00:26:32.116Z,14.70
2023-03-13T00:28:59.465Z,14.70
2023-03-13T00:31:31.625Z,14.70
2023-03-13T00:34:03.195Z,14.60
2023-03-13T00:36:35.409Z,14.60
2023-03-13T00:39:03.985Z,14.60
2023-03-13T00:41:32.936Z,14.70
2023-03-13T00:44:00.312Z,14.70
2023-03-13T00:46:29.728Z,14.80
2023-03-13T00:48:57.434Z,14.70
2023-03-13T00:51:26.990Z,14.70
2023-03-13T00:54:00.453Z,14.70
2023-03-13T00:56:28.423Z,14.70
2023-03-13T00:58:55.628Z,14.70
2023-03-13T01:01:25.738Z,14.80
2023-03-13T01:03:58.213Z,14.90
2023-03-13T01:06:28.174Z,14.90
2023-03-13T01:08:55.631Z,14.80
2023-03-13T01:11:25.436Z,14.80
2023-03-13T01:14:00.744Z,14.80
2023-03-13T01:16:29.933Z,14.80
2023-03-13T01:18:59.745Z,14.90
2023-03-13T01:21:27.968Z,15.00
2023-03-13T01:23:54.998Z,14.90
2023-03-13T01:26:22.674Z,14.90
2023-03-13T01:28:49.938Z,14.80
2023-03-13T01:31:20.745Z,14.70
2023-03-13T01:33:49.870Z,14.60
2023-03-13T01:36:18.032Z,14.50
2023-03-13T01:38:47.648Z,14.40
2023-03-13T01:41:14.691Z,14.30
2023-03-13T01:43:41.644Z,14.30
2023-03-13T01:46:10.211Z,14.20
2023-03-13T01:48:49.309Z,14.20
2023-03-13T01:51:33.226Z,14.10
2023-03-13T01:54:28.720Z,14.00
2023-03-13T01:56:58.493Z,13.90
2023-03-13T01:59:33.874Z,13.90
2023-03-13T02:02:02.926Z,13.80
2023-03-13T02:04:36.548Z,13.80
2023-03-13T02:07:09.964Z,13.80
2023-03-13T02:09:41.301Z,13.90
2023-03-13T02:12:14.697Z,14.00
2023-03-13T02:14:45.235Z,14.00
2023-03-13T02:17:13.774Z,14.10
2023-03-13T02:19:45.396Z,14.10
2023-03-13T02:22:25.642Z,14.00
2023-03-13T02:25:09.351Z,14.20
2023-03-13T02:27:36.519Z,14.20
2023-03-13T02:30:05.262Z,14.20
2023-03-13T02:32:32.573Z,14.30
2023-03-13T02:35:06.612Z,14.20
2023-03-13T02:37:33.870Z,14.30
2023-03-13T02:40:05.943Z,14.30
2023-03-13T02:42:32.856Z,14.50
2023-03-13T02:44:59.850Z,14.50
2023-03-13T02:47:26.727Z,14.50
2023-03-13T02:49:53.651Z,14.40
2023-03-13T02:52:42.110Z,14.50
2023-03-13T02:55:18.195Z,14.40
2023-03-13T02:57:45.365Z,14.40
2023-03-13T03:00:13.016Z,14.30
2023-03-13T03:02:40.003Z,14.30
2023-03-13T03:05:08.089Z,14.30
2023-03-13T03:07:35.090Z,14.40
2023-03-13T03:10:02.017Z,14.60
2023-03-13T03:12:28.953Z,14.50
2023-03-13T03:14:55.958Z,14.40
2023-03-13T03:17:22.903Z,14.40
2023-03-13T03:19:49.848Z,14.30
2023-03-13T03:22:16.807Z,14.20
2023-03-13T03:24:45.713Z,14.20
2023-03-13T03:27:12.577Z,14.20
2023-03-13T03:29:39.601Z,14.30
2023-03-13T03:32:06.785Z,14.20
2023-03-13T03:34:34.058Z,14.10
2023-03-13T03:37:00.909Z,14.10
2023-03-13T03:39:28.072Z,14.00
2023-03-13T03:41:54.930Z,14.10
2023-03-13T03:44:21.871Z,14.00
2023-03-13T03:46:48.782Z,14.00
2023-03-13T03:49:15.727Z,14.10
2023-03-13T03:51:42.581Z,14.00
2023-03-13T03:54:09.536Z,13.90
2023-03-13T03:56:36.374Z,13.80
2023-03-13T03:59:03.336Z,13.60
2023-03-13T04:01:30.189Z,13.30
2023-03-13T04:03:57.137Z,13.30
2023-03-13T04:06:24.070Z,13.20
2023-03-13T04:08:51.018Z,13.10
2023-03-13T04:11:17.881Z,13.10
2023-03-13T04:13:44.850Z,13.20
2023-03-13T04:16:11.995Z,13.30
2023-03-13T04:18:38.945Z,13.40
2023-03-13T04:21:06.512Z,13.40
2023-03-13T04:23:33.402Z,13.60
2023-03-13T04:26:00.318Z,13.70
2023-03-13T04:28:27.190Z,13.70
2023-03-13T04:30:57.441Z,13.80
2023-03-13T04:33:25.575Z,13.80
2023-03-13T04:35:52.675Z,13.90
2023-03-13T04:38:19.588Z,14.00
2023-03-13T04:40:47.987Z,13.90
2023-03-13T04:43:14.903Z,13.90
2023-03-13T04:45:41.842Z,13.90
2023-03-13T04:48:08.798Z,13.90
2023-03-13T04:50:35.829Z,13.90
2023-03-13T04:53:02.714Z,14.00
2023-03-13T04:55:29.730Z,14.00
2023-03-13T04:57:56.647Z,14.00
2023-03-13T05:00:23.724Z,14.10
2023-03-13T05:02:50.622Z,14.00
2023-03-13T05:05:17.732Z,13.90
2023-03-13T05:07:44.730Z,13.70
2023-03-13T05:10:11.833Z,13.70
2023-03-13T05:12:38.922Z,13.60
2023-03-13T05:15:06.230Z,13.60
2023-03-13T05:17:33.282Z,13.30
2023-03-13T05:20:00.189Z,13.30
2023-03-13T05:22:27.419Z,13.30
2023-03-13T05:24:54.341Z,13.30
2023-03-13T05:27:21.427Z,13.20
2023-03-13T05:29:48.337Z,13.30
2023-03-13T05:32:15.490Z,13.30
2023-03-13T05:34:42.352Z,13.30
2023-03-13T05:37:09.322Z,13.30
2023-03-13T05:39:36.301Z,13.30
2023-03-13T05:42:03.294Z,13.30
2023-03-13T05:44:30.222Z,13.40
2023-03-13T05:46:57.260Z,13.40
2023-03-13T05:49:24.195Z,13.30
2023-03-13T05:51:51.339Z,13.30
2023-03-13T05:54:18.256Z,13.30
2023-03-13T05:56:45.291Z,13.50
2023-03-13T05:59:12.156Z,13.50
2023-03-13T06:01:39.088Z,13.50
2023-03-13T06:04:06.133Z,13.50
2023-03-13T06:06:33.213Z,13.50
2023-03-13T06:09:00.160Z,13.50
2023-03-13T06:11:27.473Z,13.50
2023-03-13T06:13:54.610Z,13.60
2023-03-13T06:16:21.591Z,13.60
2023-03-13T06:18:48.550Z,13.70
2023-03-13T06:21:15.837Z,13.90
2023-03-13T06:23:42.730Z,13.90
2023-03-13T06:26:09.701Z,14.00
2023-03-13T06:28:36.574Z,14.20
2023-03-13T06:31:05.507Z,14.30
2023-03-13T06:33:33.287Z,14.40
2023-03-13T06:36:03.964Z,14.60
2023-03-13T06:38:32.066Z,14.60
2023-03-13T06:40:59.076Z,14.70
2023-03-13T06:43:26.301Z,14.70
2023-03-13T06:45:53.344Z,14.70
2023-03-13T06:48:22.973Z,14.80
2023-03-13T06:50:50.177Z,14.80
2023-03-13T06:53:21.111Z,14.80
2023-03-13T06:55:49.136Z,14.80
2023-03-13T06:58:31.156Z,14.80
2023-03-13T07:00:59.979Z,14.90
2023-03-13T07:03:27.062Z,14.90
2023-03-13T07:05:58.111Z,14.80
2023-03-13T07:08:26.045Z,14.80
2023-03-13T07:10:54.926Z,14.90
2023-03-13T07:13:22.281Z,15.00
2023-03-13T07:15:49.513Z,15.10
2023-03-13T07:18:16.475Z,15.10
2023-03-13T07:20:43.882Z,15.20
2023-03-13T07:23:10.903Z,15.40
2023-03-13T07:25:37.780Z,15.50
2023-03-13T07:28:04.933Z,15.50
2023-03-13T07:30:31.915Z,15.70
2023-03-13T07:32:59.214Z,16.00
2023-03-13T07:35:26.161Z,16.00
2023-03-13T07:37:53.226Z,16.00
2023-03-13T07:40:20.372Z,16.30
2023-03-13T07:42:47.315Z,16.40
2023-03-13T07:45:14.276Z,16.80
2023-03-13T07:47:41.218Z,17.10
2023-03-13T07:50:08.907Z,17.30
2023-03-13T07:52:35.882Z,17.80
2023-03-13T07:55:02.816Z,19.70
2023-03-13T07:57:30.586Z,20.30
2023-03-13T07:59:57.468Z,19.70
2023-03-13T08:02:24.477Z,19.50
2023-03-13T08:04:54.278Z,20.30
2023-03-13T08:07:21.211Z,21.90
2023-03-13T08:09:48.210Z,22.40
2023-03-13T08:12:15.085Z,23.30
2023-03-13T08:14:41.944Z,23.20
2023-03-13T08:17:09.020Z,22.50
2023-03-13T08:19:36.215Z,22.90
2023-03-13T08:22:03.300Z,22.00
2023-03-13T08:24:30.289Z,21.30
2023-03-13T08:26:57.274Z,20.30
2023-03-13T08:29:24.300Z,19.60
2023-03-13T08:31:52.765Z,19.20
2023-03-13T08:34:19.899Z,18.90
2023-03-13T08:36:47.953Z,18.60
2023-03-13T08:39:16.200Z,18.70
2023-03-13T08:41:43.846Z,18.70
2023-03-13T08:44:16.429Z,18.80
2023-03-13T08:46:44.447Z,18.70
2023-03-13T08:49:12.633Z,18.40
2023-03-13T08:51:40.334Z,18.30
2023-03-13T08:54:07.280Z,18.40
2023-03-13T08:56:35.033Z,18.60
2023-03-13T08:59:03.646Z,18.50
2023-03-13T09:01:33.016Z,18.60
2023-03-13T09:04:03.840Z,18.80
2023-03-13T09:06:32.261Z,18.80
2023-03-13T09:08:59.282Z,18.80
2023-03-13T09:11:26.994Z,18.70
2023-03-13T09:13:56.222Z,18.60
2023-03-13T09:16:29.261Z,18.70
2023-03-13T09:18:57.248Z,18.60
2023-03-13T09:21:29.573Z,19.20
2023-03-13T09:23:57.076Z,22.20
2023-03-13T09:26:24.806Z,25.20
2023-03-13T09:28:52.778Z,27.10
2023-03-13T09:31:23.166Z,29.10
2023-03-13T09:33:51.135Z,29.90
2023-03-13T09:36:22.066Z,30.40
2023-03-13T09:38:51.855Z,30.10
2023-03-13T09:41:36.533Z,28.30
2023-03-13T09:44:15.476Z,27.00
2023-03-13T09:46:54.654Z,25.40
2023-03-13T09:49:39.994Z,24.40
2023-03-13T09:52:25.770Z,24.20
2023-03-13T09:55:03.065Z,23.80
2023-03-13T09:57:44.006Z,23.40
2023-03-13T10:00:29.330Z,23.00
2023-03-13T10:03:10.913Z,22.70
2023-03-13T10:05:50.800Z,22.50
2023-03-13T10:08:24.532Z,22.10
2023-03-13T10:11:12.358Z,21.80
2023-03-13T10:14:20.429Z,21.40
2023-03-13T10:17:12.670Z,22.20
2023-03-13T10:19:43.469Z,22.50
2023-03-13T10:22:22.354Z,22.90
2023-03-13T10:24:58.285Z,22.80
2023-03-13T10:27:25.238Z,23.00
2023-03-13T10:29:52.345Z,23.00
2023-03-13T10:32:20.049Z,23.00
2023-03-13T10:35:00.979Z,23.50
2023-03-13T10:37:31.486Z,23.70
2023-03-13T10:40:26.969Z,23.90
2023-03-13T10:43:22.297Z,23.70
2023-03-13T10:45:49.373Z,23.10
2023-03-13T10:48:22.029Z,22.90
2023-03-13T10:50:54.688Z,22.70
2023-03-13T10:53:30.805Z,22.70
2023-03-13T10:56:10.785Z,22.90
2023-03-13T10:58:41.803Z,23.20
2023-03-13T11:01:23.205Z,23.60
2023-03-13T11:03:52.635Z,23.80
2023-03-13T11:06:32.872Z,24.30
2023-03-13T11:09:09.996Z,24.00
2023-03-13T11:12:01.625Z,23.50
2023-03-13T11:14:28.693Z,23.00
2023-03-13T11:17:15.178Z,23.10
2023-03-13T11:20:14.358Z,23.00
2023-03-13T11:23:08.710Z,22.90
2023-03-13T11:26:12.778Z,22.80
2023-03-13T11:29:02.765Z,22.90
2023-03-13T11:31:43.654Z,22.80
2023-03-13T11:34:32.532Z,22.90
2023-03-13T11:37:12.283Z,22.90
2023-03-13T11:39:56.926Z,23.20
2023-03-13T11:42:39.022Z,23.20
2023-03-13T11:45:32.756Z,23.10
2023-03-13T11:48:05.177Z,23.00
2023-03-13T11:50:55.156Z,22.90
2023-03-13T11:53:40.843Z,22.80
2023-03-13T11:56:42.862Z,22.70
2023-03-13T11:59:45.721Z,22.80
2023-03-13T12:02:26.511Z,22.90
2023-03-13T12:05:02.111Z,23.20
2023-03-13T12:07:55.674Z,23.30
2023-03-13T12:10:41.324Z,23.50
2023-03-13T12:13:21.557Z,23.60
2023-03-13T12:15:54.597Z,23.70
2023-03-13T12:18:38.628Z,23.80
2023-03-13T12:21:32.361Z,23.80
2023-03-13T12:24:24.197Z,23.80
2023-03-13T12:26:58.446Z,23.80
2023-03-13T12:29:53.498Z,23.80
2023-03-13T12:32:52.638Z,23.60
2023-03-13T12:35:30.725Z,23.50
2023-03-13T12:38:41.656Z,23.50
2023-03-13T12:41:31.590Z,23.50
2023-03-13T12:44:08.177Z,23.60
2023-03-13T12:46:39.160Z,23.50
2023-03-13T12:49:38.326Z,23.60
2023-03-13T12:52:11.267Z,23.90
2023-03-13T12:55:08.310Z,24.10
2023-03-13T12:57:50.089Z,24.30
2023-03-13T13:00:21.810Z,24.50
2023-03-13T13:03:01.806Z,24.40
2023-03-13T13:05:28.833Z,24.40
2023-03-13T13:07:56.894Z,24.60
2023-03-13T13:10:26.744Z,24.50
2023-03-13T13:13:15.337Z,24.60
2023-03-13T13:15:47.612Z,24.30
2023-03-13T13:18:30.529Z,24.40
2023-03-13T13:21:03.177Z,24.30
2023-03-13T13:23:43.786Z,24.40
2023-03-13T13:26:29.655Z,24.40
2023-03-13T13:29:25.269Z,24.40
2023-03-13T13:31:52.283Z,24.50
2023-03-13T13:34:28.572Z,24.60
2023-03-13T13:37:00.626Z,24.60
2023-03-13T13:39:40.242Z,24.60
2023-03-13T13:42:32.321Z,24.80
2023-03-13T13:45:04.779Z,24.70
2023-03-13T13:47:33.809Z,24.60
2023-03-13T13:50:01.309Z,24.40
2023-03-13T13:52:36.742Z,24.40
2023-03-13T13:55:21.861Z,24.00
2023-03-13T13:57:49.940Z,23.80
2023-03-13T14:00:23.931Z,23.80
2023-03-13T14:02:52.208Z,23.80
2023-03-13T14:05:27.040Z,23.90
2023-03-13T14:08:33.076Z,23.90
2023-03-13T14:11:14.914Z,23.70
2023-03-13T14:13:42.355Z,23.60
2023-03-13T14:16:36.907Z,23.60
2023-03-13T14:19:04.539Z,23.80
2023-03-13T14:21:33.162Z,23.90
2023-03-13T14:24:00.120Z,24.00
2023-03-13T14:26:29.202Z,24.00
2023-03-13T14:28:57.477Z,24.20
2023-03-13T14:31:31.888Z,24.40
2023-03-13T14:34:02.318Z,24.80
2023-03-13T14:36:29.606Z,25.10
2023-03-13T14:38:58.873Z,25.10
2023-03-13T14:41:37.723Z,25.00
2023-03-13T14:44:24.057Z,24.70
2023-03-13T14:46:58.995Z,24.60
2023-03-13T14:49:31.738Z,24.70
2023-03-13T14:52:17.377Z,24.70
2023-03-13T14:55:04.283Z,24.80
2023-03-13T14:57:32.432Z,24.50
2023-03-13T15:00:22.784Z,24.50
2023-03-13T15:02:49.779Z,24.60
2023-03-13T15:05:34.007Z,24.40
2023-03-13T15:08:00.907Z,24.20
2023-03-13T15:10:40.763Z,24.00
2023-03-13T15:13:20.001Z,23.90
2023-03-13T15:15:51.205Z,23.90
2023-03-13T15:18:26.784Z,23.90
2023-03-13T15:20:57.432Z,23.90
2023-03-13T15:23:24.889Z,23.90
2023-03-13T15:25:51.793Z,23.80
2023-03-13T15:28:21.677Z,23.90
2023-03-13T15:30:54.128Z,24.00
2023-03-13T15:33:23.438Z,24.00
2023-03-13T15:35:50.758Z,24.00
2023-03-13T15:38:20.465Z,23.80
2023-03-13T15:40:48.134Z,23.70
2023-03-13T15:43:15.771Z,23.60
2023-03-13T15:45:44.833Z,23.70
2023-03-13T15:48:15.821Z,23.60
2023-03-13T15:50:43.823Z,23.80
2023-03-13T15:53:19.126Z,24.00
2023-03-13T15:55:48.322Z,24.00
2023-03-13T15:58:16.176Z,23.80
2023-03-13T16:00:44.602Z,23.80
2023-03-13T16:03:16.924Z,23.60
2023-03-13T16:05:44.195Z,23.50
2023-03-13T16:08:34.230Z,23.40
2023-03-13T16:11:02.421Z,23.40
2023-03-13T16:13:29.494Z,23.30
2023-03-13T16:15:56.767Z,23.40
2023-03-13T16:18:24.850Z,23.40
2023-03-13T16:20:54.174Z,23.50
2023-03-13T16:23:21.149Z,23.40
2023-03-13T16:25:49.067Z,23.40
2023-03-13T16:28:16.585Z,23.30
2023-03-13T16:30:44.048Z,23.30
2023-03-13T16:33:11.740Z,23.10
2023-03-13T16:35:39.284Z,23.00
2023-03-13T16:38:08.445Z,22.90
2023-03-13T16:40:35.873Z,22.80
2023-03-13T16:43:03.148Z,22.90
2023-03-13T16:45:30.368Z,22.90
2023-03-13T16:47:57.311Z,23.00
2023-03-13T16:50:33.229Z,23.00
2023-03-13T16:53:00.423Z,23.00
2023-03-13T16:55:28.803Z,23.00
2023-03-13T16:57:57.089Z,22.90
2023-03-13T17:00:25.932Z,22.80
2023-03-13T17:02:53.067Z,22.80
2023-03-13T17:05:20.292Z,22.60
2023-03-13T17:07:49.347Z,22.50
2023-03-13T17:10:32.079Z,22.40
2023-03-13T17:12:59.691Z,22.40
2023-03-13T17:15:28.748Z,22.40
2023-03-13T17:17:56.163Z,22.40
2023-03-13T17:20:30.193Z,22.30
2023-03-13T17:22:57.495Z,22.30
2023-03-13T17:25:24.949Z,22.20
2023-03-13T17:27:52.219Z,22.20
2023-03-13T17:30:30.178Z,22.00
2023-03-13T17:32:59.040Z,22.00
2023-03-13T17:35:26.211Z,21.90
2023-03-13T17:37:53.134Z,21.90
2023-03-13T17:40:21.528Z,21.80
2023-03-13T17:42:48.673Z,21.70
2023-03-13T17:45:15.673Z,21.60
2023-03-13T17:47:42.887Z,21.50
2023-03-13T17:50:26.410Z,21.50
2023-03-13T17:52:53.781Z,21.60
2023-03-13T17:55:20.713Z,21.60
2023-03-13T17:57:52.116Z,21.70
2023-03-13T18:00:31.882Z,21.60
2023-03-13T18:02:59.959Z,21.60
2023-03-13T18:05:28.025Z,21.70
2023-03-13T18:07:56.506Z,21.70
2023-03-13T18:10:26.036Z,21.60
2023-03-13T18:12:53.672Z,21.70
2023-03-13T18:15:22.348Z,21.70
2023-03-13T18:17:49.914Z,21.60
2023-03-13T18:20:30.425Z,21.50
2023-03-13T18:23:00.404Z,21.50
2023-03-13T18:25:28.601Z,21.40
2023-03-13T18:27:55.658Z,21.40
2023-03-13T18:30:25.089Z,21.40
2023-03-13T18:32:52.453Z,21.40
2023-03-13T18:35:19.487Z,21.40
2023-03-13T18:37:47.630Z,21.40
2023-03-13T18:40:23.409Z,21.50
2023-03-13T18:42:50.760Z,21.40
2023-03-13T18:45:20.121Z,21.30
2023-03-13T18:47:50.233Z,21.20
2023-03-13T18:50:20.509Z,21.00
2023-03-13T18:52:47.442Z,21.00
2023-03-13T18:55:14.459Z,20.90
2023-03-13T18:57:41.450Z,20.90
2023-03-13T19:00:34.754Z,20.70
2023-03-13T19:03:01.727Z,20.70
2023-03-13T19:05:28.924Z,20.70
2023-03-13T19:07:56.067Z,20.80
2023-03-13T19:10:27.404Z,20.80
2023-03-13T19:12:55.643Z,19.80
2023-03-13T19:15:25.932Z,17.90
2023-03-13T19:17:54.090Z,16.70
2023-03-13T19:20:23.387Z,15.80
2023-03-13T19:22:50.318Z,15.40
2023-03-13T19:25:17.532Z,15.20
2023-03-13T19:27:45.479Z,15.10
2023-03-13T19:30:20.754Z,15.20
2023-03-13T19:32:47.740Z,15.10
2023-03-13T19:35:18.917Z,15.00
2023-03-13T19:37:46.539Z,15.00
2023-03-13T19:40:20.764Z,14.80
2023-03-13T19:42:47.703Z,14.60
2023-03-13T19:45:17.328Z,14.00
2023-03-13T19:47:44.682Z,13.40
2023-03-13T19:50:24.036Z,12.70
2023-03-13T19:52:50.933Z,12.20
2023-03-13T19:55:17.944Z,11.90
2023-03-13T19:57:45.028Z,11.60
2023-03-13T20:00:23.876Z,11.40
2023-03-13T20:02:54.826Z,11.40
2023-03-13T20:05:22.513Z,11.30
2023-03-13T20:07:49.434Z,11.20
2023-03-13T20:10:16.589Z,11.20
2023-03-13T20:12:43.528Z,11.20
2023-03-13T20:15:11.169Z,11.20
2023-03-13T20:17:38.107Z,11.10
2023-03-13T20:20:08.351Z,11.10
2023-03-13T20:22:35.469Z,11.00
2023-03-13T20:25:02.470Z,10.90
2023-03-13T20:27:29.437Z,10.90
2023-03-13T20:29:56.368Z,11.00
2023-03-13T20:32:23.257Z,11.10
2023-03-13T20:34:50.264Z,11.00
2023-03-13T20:37:17.137Z,11.10
2023-03-13T20:39:44.037Z,11.20
2023-03-13T20:42:11.613Z,11.20
2023-03-13T20:44:38.654Z,11.30
2023-03-13T20:47:05.608Z,11.40
2023-03-13T20:49:34.556Z,11.20
2023-03-13T20:52:01.606Z,11.20
2023-03-13T20:54:28.517Z,11.30
2023-03-13T20:56:55.638Z,11.30
2023-03-13T20:59:22.514Z,11.50
2023-03-13T21:01:49.494Z,11.50
2023-03-13T21:04:16.480Z,11.40
2023-03-13T21:06:43.842Z,11.40
2023-03-13T21:09:10.760Z,11.40
2023-03-13T21:11:37.798Z,11.50
2023-03-13T21:14:04.888Z,11.50
2023-03-13T21:16:31.802Z,11.30
2023-03-13T21:18:59.097Z,11.40
2023-03-13T21:21:26.183Z,11.40
2023-03-13T21:23:53.272Z,11.50
2023-03-13T21:26:20.348Z,11.60
2023-03-13T21:28:48.908Z,11.70
2023-03-13T21:31:17.782Z,11.70
2023-03-13T21:33:45.900Z,11.60
2023-03-13T21:36:14.964Z,11.60
2023-03-13T21:38:42.368Z,11.60
2023-03-13T21:41:10.992Z,11.60
2023-03-13T21:43:41.443Z,11.70
2023-03-13T21:46:09.911Z,11.80
2023-03-13T21:48:39.092Z,11.80
2023-03-13T21:51:06.881Z,11.80
2023-03-13T21:53:34.634Z,11.70
2023-03-13T21:56:01.849Z,11.70
2023-03-13T21:58:28.845Z,11.70
2023-03-13T22:00:56.989Z,11.70
2023-03-13T22:03:26.577Z,11.60
2023-03-13T22:05:54.026Z,11.70
2023-03-13T22:08:21.044Z,11.70
2023-03-13T22:10:49.550Z,11.70
2023-03-13T22:13:16.760Z,11.80
2023-03-13T22:15:46.321Z,11.80
2023-03-13T22:18:15.114Z,11.90
2023-03-13T22:20:43.080Z,11.90
2023-03-13T22:23:12.027Z,12.00
2023-03-13T22:25:40.489Z,12.00
2023-03-13T22:28:07.985Z,12.10
2023-03-13T22:30:35.626Z,12.10
2023-03-13T22:33:06.586Z,12.20
2023-03-13T22:35:45.128Z,12.20
2023-03-13T22:38:12.029Z,12.20
2023-03-13T22:40:38.998Z,12.30
2023-03-13T22:43:05.901Z,12.30
2023-03-13T22:45:34.086Z,12.10
2023-03-13T22:48:06.143Z,12.10
2023-03-13T22:50:34.431Z,12.00
2023-03-13T22:53:01.938Z,11.90
2023-03-13T22:55:29.164Z,11.80
2023-03-13T22:57:56.181Z,11.80
2023-03-13T23:00:23.365Z,11.80
2023-03-13T23:02:50.439Z,11.80
2023-03-13T23:05:17.500Z,11.70
2023-03-13T23:07:44.626Z,11.70
2023-03-13T23:10:12.580Z,11.70
2023-03-13T23:12:39.619Z,11.60
2023-03-13T23:15:07.665Z,11.70
2023-03-13T23:17:35.238Z,11.70
2023-03-13T23:20:10.686Z,11.70
2023-03-13T23:22:37.595Z,11.70
2023-03-13T23:25:05.581Z,11.70
2023-03-13T23:27:33.134Z,11.70
2023-03-13T23:30:04.229Z,11.60
2023-03-13T23:32:36.771Z,11.80
2023-03-13T23:35:04.913Z,11.80
2023-03-13T23:37:33.286Z,11.90
2023-03-13T23:40:08.183Z,11.90
2023-03-13T23:42:35.190Z,11.90
2023-03-13T23:45:09.208Z,11.80
2023-03-13T23:47:36.331Z,11.80
2023-03-13T23:50:05.333Z,11.70
2023-03-13T23:52:36.469Z,11.70
2023-03-13T23:55:04.733Z,11.80
2023-03-13T23:57:32.477Z,11.80
